Thursday, January 17, 2019, 6:00 AM EST
Back to Local

KORE, Orange, Orange Municipal Airport

Location: Orange, MA, United States Lat: 42.572
Local Time: 6:00 AM EST (11:00 GMT) Lon: -72.278
Time Zone: US/Eastern Elev: 554 ft

Show me the last for .
Show Decoded

2019-01-17 04:52 METAR KORE 170952Z AUTO 30004KT 10SM CLR M11/M17 A3031 RMK AO2 SLP273 T11061172
                 =
2019-01-17 03:52 METAR KORE 170852Z AUTO 36006KT 10SM CLR M09/M17 A3028 RMK AO2 SLP264 T10941167
                 51033 =
2019-01-17 02:52 METAR KORE 170752Z AUTO 36006KT 10SM CLR M08/M18 A3027 RMK AO2 SLP258 T10781183
                 =
2019-01-17 01:52 METAR KORE 170652Z AUTO 34009KT 10SM CLR M06/M21 A3023 RMK AO2 SLP243 T10561211
                 =
2019-01-17 00:52 METAR KORE 170552Z AUTO VRB04KT 10SM CLR M04/M16 A3019 RMK AO2 SLP230 T10441156
                 10022 21044 51029 =
2019-01-16 23:52 METAR KORE 170452Z AUTO 33007G17KT 10SM SCT040 M03/M13 A3016 RMK AO2 SLP221
                 T10331133 400221100 =
2019-01-16 22:52 METAR KORE 170352Z AUTO 28007KT 10SM OVC047 M02/M12 A3013 RMK AO2 SLP210
                 T10171117 =
2019-01-16 21:52 METAR KORE 170252Z AUTO 29011G19KT 10SM FEW046 M01/M12 A3010 RMK AO2 SLP200
                 T10111117 52037 =
2019-01-16 20:52 METAR KORE 170152Z AUTO 30013G20KT 10SM CLR M01/M12 A3007 RMK AO2 SLP189
                 T10061122 =
2019-01-16 19:52 METAR KORE 170052Z AUTO 29013G26KT 10SM FEW038 SCT046 01/M09 A3002 RMK AO2 PK
                 WND 30026/0049 SLP173 T00061094 =
2019-01-16 18:52 METAR KORE 162352Z AUTO 28015G22KT 10SM OVC050 02/M08 A2999 RMK AO2 SLP163
                 T00221078 10022 20006 53021 =
2019-01-16 17:52 METAR KORE 162252Z AUTO 28005KT 10SM OVC050 02/M07 A2996 RMK AO2 SLP152
                 T00171072 =
2019-01-16 16:52 METAR KORE 162152Z AUTO 22006KT 10SM OVC055 02/M07 A2993 RMK AO2 SLP143
                 T00171067 =
2019-01-16 15:52 METAR KORE 162052Z AUTO 23008KT 10SM BKN060 02/M07 A2992 RMK AO2 SLP142
                 T00171067 51006 =
2019-01-16 14:52 METAR KORE 161952Z AUTO 22011G16KT 10SM FEW049 OVC060 02/M07 A2992 RMK AO2
                 SLP140 T00171067 =
2019-01-16 13:52 METAR KORE 161852Z AUTO 26007KT 10SM OVC042 02/M06 A2992 RMK AO2 SLP140
                 T00171061 =
2019-01-16 12:52 METAR KORE 161752Z AUTO 23007KT 10SM OVC033 01/M06 A2991 RMK AO2 SLP136
                 T00061061 10006 21078 56017 =
2019-01-16 11:52 METAR KORE 161652Z AUTO 21007KT 10SM OVC032 00/M07 A2992 RMK AO2 SLP140
                 T00001067 =
2019-01-16 10:52 METAR KORE 161552Z AUTO 20009KT 10SM OVC034 M01/M07 A2994 RMK AO2 SLP149
                 T10061072 =
2019-01-16 09:52 METAR KORE 161452Z AUTO 20005KT 10SM OVC030 M02/M08 A2996 RMK AO2 SLP153
                 T10171078 53001 =
2019-01-16 09:40 METAR KORE 161440Z AUTO 21008KT 10SM OVC030 M02/M08 A2995 RMK AO2 T10171078 =
2019-01-16 09:04 METAR KORE 161404Z AUTO 21008KT 10SM BKN029 OVC034 M02/M07 A2995 RMK AO2
                 T10221072 =
2019-01-16 08:52 METAR KORE 161352Z AUTO 21007KT 10SM OVC033 M02/M07 A2995 RMK AO2 SLP150
                 T10221072 =
2019-01-16 07:52 METAR KORE 161252Z AUTO 22005KT 10SM BKN043 M07/M09 A2995 RMK AO2 SLP151
                 T10671089 =
2019-01-16 06:52 METAR KORE 161152Z AUTO 00000KT 10SM OVC050 M08/M10 A2996 RMK AO2 SLP153 I6000
                 T10781100 11072 21100 56004 =

Support USWX by starting your Amazon purchase here.